createdAt,value
2019-04-23T00:04:16.881Z,29.60
2019-04-23T00:09:32.878Z,29.70
2019-04-23T00:14:47.960Z,29.80
2019-04-23T00:19:50.250Z,29.80
2019-04-23T00:30:04.376Z,29.90
2019-04-23T00:35:06.400Z,30.10
2019-04-23T00:40:11.325Z,30.10
2019-04-23T00:45:30.662Z,30.20
2019-04-23T00:50:42.262Z,30.20
2019-04-23T01:00:57.857Z,30.40
2019-04-23T01:06:06.479Z,30.60
2019-04-23T01:11:11.204Z,30.60
2019-04-23T01:16:14.979Z,30.70
2019-04-23T01:21:09.560Z,30.80
2019-04-23T01:26:41.898Z,30.90
2019-04-23T01:31:54.788Z,31.00
2019-04-23T01:36:56.054Z,31.00
2019-04-23T01:42:12.950Z,31.10
2019-04-23T01:47:25.197Z,31.20
2019-04-23T01:52:34.960Z,31.20
2019-04-23T01:57:46.697Z,31.30
2019-04-23T02:02:55.681Z,31.40
2019-04-23T02:08:06.539Z,31.40
2019-04-23T02:13:16.408Z,31.50
2019-04-23T02:18:20.626Z,31.60
2019-04-23T02:28:49.643Z,31.70
2019-04-23T02:39:21.832Z,31.80
2019-04-23T03:04:57.646Z,32.00
2019-04-23T03:10:11.855Z,32.10
2019-04-23T03:21:11.652Z,32.10
2019-04-23T03:25:59.956Z,32.20
2019-04-23T03:51:34.089Z,33.00
2019-04-23T03:56:56.668Z,33.20
2019-04-23T04:02:02.881Z,33.20
2019-04-23T04:07:18.456Z,33.20
2019-04-23T04:12:16.920Z,33.30
2019-04-23T04:17:17.862Z,33.40
2019-04-23T04:32:47.146Z,33.60
2019-04-23T04:43:20.500Z,33.90
2019-04-23T04:48:00.742Z,33.90
2019-04-23T04:53:26.861Z,34.10
2019-04-23T04:58:25.602Z,34.10
2019-04-23T05:08:41.547Z,34.40
2019-04-23T05:13:51.562Z,34.50
2019-04-23T05:19:02.298Z,34.60
2019-04-23T05:24:04.552Z,34.80
2019-04-23T05:29:20.071Z,34.90
2019-04-23T05:34:14.828Z,35.00
2019-04-23T05:39:31.258Z,35.10
2019-04-23T05:44:52.547Z,35.30
2019-04-23T05:49:41.397Z,35.40
2019-04-23T05:59:54.757Z,35.60
2019-04-23T06:05:16.108Z,35.70
2019-04-23T06:10:27.308Z,35.80
2019-04-23T06:15:31.747Z,35.90
2019-04-23T06:20:43.212Z,36.00
2019-04-23T06:25:57.301Z,36.20
2019-04-23T06:31:02.277Z,36.30
2019-04-23T06:36:10.313Z,36.50
2019-04-23T06:46:24.298Z,36.80
2019-04-23T06:51:27.196Z,36.80
2019-04-23T06:56:33.471Z,37.00
2019-04-23T07:02:22.242Z,37.10
2019-04-23T07:12:47.100Z,37.30
2019-04-23T07:18:05.802Z,37.50
2019-04-23T07:23:19.474Z,37.60
2019-04-23T07:28:43.766Z,37.70
2019-04-23T07:33:52.219Z,37.80
2019-04-23T07:39:01.833Z,37.70
2019-04-23T07:44:36.890Z,37.70
2019-04-23T07:49:41.459Z,37.80
2019-04-23T07:55:06.606Z,37.80
2019-04-23T08:00:18.301Z,37.90
2019-04-23T08:05:25.200Z,37.90
2019-04-23T08:10:31.759Z,38.00
2019-04-23T08:15:57.384Z,38.00
2019-04-23T08:20:57.264Z,37.80
2019-04-23T08:26:19.405Z,38.00
2019-04-23T08:31:21.971Z,38.00
2019-04-23T08:36:29.417Z,38.00
2019-04-23T08:43:18.037Z,38.10
2019-04-23T08:46:57.051Z,38.10
2019-04-23T08:52:09.553Z,38.10
2019-04-23T08:57:47.064Z,37.80
2019-04-23T09:06:08.035Z,37.80
2019-04-23T09:08:15.123Z,37.80
2019-04-23T09:13:43.842Z,37.70
2019-04-23T09:18:31.194Z,37.70
2019-04-23T09:28:48.792Z,37.70
2019-04-23T09:39:00.369Z,37.90
2019-04-23T09:44:39.415Z,38.00
2019-04-23T09:54:34.272Z,37.80
2019-04-23T10:00:25.563Z,37.90
2019-04-23T10:05:12.489Z,38.00
2019-04-23T10:10:07.995Z,38.00
2019-04-23T10:15:22.836Z,38.00
2019-04-23T10:20:24.816Z,38.00
2019-04-23T10:25:32.177Z,37.90
2019-04-23T10:30:40.653Z,37.80
2019-04-23T10:35:55.200Z,37.80
2019-04-23T10:40:57.972Z,37.60
2019-04-23T10:46:27.874Z,37.60
2019-04-23T10:51:40.979Z,37.50
2019-04-23T10:56:53.241Z,37.40
2019-04-23T11:02:15.371Z,37.40
2019-04-23T11:07:25.265Z,37.30
2019-04-23T11:12:32.063Z,37.10
2019-04-23T11:17:38.411Z,37.00
2019-04-23T11:33:00.743Z,36.70
2019-04-23T11:53:46.470Z,36.40
2019-04-23T11:58:42.878Z,36.30
2019-04-23T12:03:56.459Z,36.20
2019-04-23T12:08:57.028Z,36.10
2019-04-23T12:14:24.278Z,36.00
2019-04-23T12:19:51.254Z,36.00
2019-04-23T12:24:58.604Z,35.90
2019-04-23T12:40:00.120Z,35.70
2019-04-23T12:45:17.989Z,35.60
2019-04-23T12:55:27.944Z,35.50
2019-04-23T13:00:35.845Z,35.50
2019-04-23T13:10:45.366Z,35.40
2019-04-23T13:15:51.939Z,35.30
2019-04-23T13:21:16.766Z,35.20
2019-04-23T13:26:30.899Z,35.20
2019-04-23T13:31:20.380Z,35.20
2019-04-23T13:36:39.408Z,35.10
2019-04-23T13:41:40.395Z,35.00
2019-04-23T13:47:02.946Z,35.00
2019-04-23T13:52:19.793Z,35.00
2019-04-23T13:57:46.421Z,34.90
2019-04-23T14:02:31.355Z,34.90
2019-04-23T14:07:38.562Z,34.90
2019-04-23T14:12:43.666Z,34.80
2019-04-23T14:18:17.404Z,34.80
2019-04-23T14:28:14.406Z,34.70
2019-04-23T14:33:17.465Z,34.70
2019-04-23T14:43:31.043Z,34.60
2019-04-23T14:53:46.389Z,34.50
2019-04-23T14:59:07.153Z,34.40
2019-04-23T15:04:19.240Z,34.40
2019-04-23T15:14:23.462Z,34.30
2019-04-23T15:19:38.084Z,34.20
2019-04-23T15:24:41.304Z,34.10
2019-04-23T15:29:39.271Z,34.10
2019-04-23T15:35:07.835Z,34.10
2019-04-23T15:40:08.195Z,34.00
2019-04-23T15:45:15.134Z,34.00
2019-04-23T15:50:41.015Z,34.00
2019-04-23T15:55:30.329Z,33.90
2019-04-23T16:00:38.419Z,33.80
2019-04-23T16:05:23.138Z,33.80
2019-04-23T16:11:06.901Z,33.80
2019-04-23T16:16:07.615Z,33.60
2019-04-23T16:21:27.277Z,33.70
2019-04-23T16:26:31.262Z,33.60
2019-04-23T16:31:34.798Z,33.60
2019-04-23T16:36:38.360Z,33.50
2019-04-23T16:41:54.339Z,33.50
2019-04-23T16:47:03.793Z,33.50
2019-04-23T16:52:12.559Z,33.50
2019-04-23T17:07:24.191Z,33.30
2019-04-23T17:12:46.206Z,33.30
2019-04-23T17:17:51.824Z,33.20
2019-04-23T17:23:08.645Z,33.20
2019-04-23T17:28:12.638Z,33.10
2019-04-23T17:38:33.720Z,33.10
2019-04-23T17:43:46.999Z,33.00
2019-04-23T17:48:48.028Z,33.00
2019-04-23T17:53:59.872Z,32.90
2019-04-23T17:59:28.316Z,32.90
2019-04-23T18:09:32.764Z,32.80
2019-04-23T18:14:22.774Z,32.80
2019-04-23T18:19:37.587Z,32.70
2019-04-23T18:24:53.578Z,32.70
2019-04-23T18:30:02.665Z,32.60
2019-04-23T18:40:10.635Z,32.60
2019-04-23T18:45:31.553Z,32.60
2019-04-23T18:50:49.644Z,32.50
2019-04-23T19:06:17.182Z,32.40
2019-04-23T19:11:24.174Z,32.40
2019-04-23T19:16:25.165Z,32.30
2019-04-23T19:21:57.519Z,32.30
2019-04-23T19:27:03.548Z,32.30
2019-04-23T19:31:55.613Z,32.30
2019-04-23T19:57:42.287Z,32.10
2019-04-23T20:08:16.795Z,32.00
2019-04-23T20:13:02.577Z,32.00
2019-04-23T20:18:06.716Z,31.90
2019-04-23T20:23:40.246Z,31.90
2019-04-23T20:28:51.303Z,31.90
2019-04-23T20:33:59.056Z,31.90
2019-04-23T20:44:01.356Z,31.90
2019-04-23T20:49:10.980Z,31.80
2019-04-23T20:54:19.527Z,31.80
2019-04-23T20:59:25.044Z,31.70
2019-04-23T21:04:39.773Z,31.70
2019-04-23T21:10:00.906Z,31.60
2019-04-23T21:20:16.293Z,31.70
2019-04-23T21:25:08.318Z,31.60
2019-04-23T21:30:23.023Z,31.50
2019-04-23T21:35:42.860Z,31.50
2019-04-23T21:40:59.192Z,31.50
2019-04-23T21:51:28.620Z,31.50
2019-04-23T21:56:10.894Z,31.40
2019-04-23T22:01:28.214Z,31.40
2019-04-23T22:06:38.864Z,31.40
2019-04-23T22:17:00.970Z,31.40
2019-04-23T22:26:58.369Z,31.30
2019-04-23T22:32:02.374Z,31.30
2019-04-23T22:47:40.928Z,31.20
2019-04-23T22:52:48.926Z,31.20
2019-04-23T23:03:06.843Z,31.10
2019-04-23T23:13:20.613Z,31.20
2019-04-23T23:18:33.995Z,31.10
2019-04-23T23:23:39.464Z,31.10
2019-04-23T23:28:46.134Z,31.20
2019-04-23T23:34:02.611Z,31.20
2019-04-23T23:39:16.295Z,31.30
2019-04-23T23:49:27.918Z,31.30
2019-04-23T23:54:27.497Z,31.40
2019-04-23T23:59:48.537Z,31.40
